createdAt,value
2023-02-02T00:02:57.638Z,100186.09
2023-02-02T00:06:00.221Z,100196.34
2023-02-02T00:09:03.796Z,100197.34
2023-02-02T00:12:06.425Z,100202.31
2023-02-02T00:15:09.430Z,100201.25
2023-02-02T00:18:12.423Z,100188.91
2023-02-02T00:21:14.938Z,100184.19
2023-02-02T00:24:18.302Z,100187.63
2023-02-02T00:27:20.908Z,100189.72
2023-02-02T00:30:23.841Z,100191.06
2023-02-02T00:33:26.442Z,100196.88
2023-02-02T00:36:29.091Z,100165.59
2023-02-02T00:39:31.775Z,100193.38
2023-02-02T00:42:34.379Z,100191.53
2023-02-02T00:45:38.345Z,100193.25
2023-02-02T00:48:40.883Z,100183.19
2023-02-02T00:51:43.423Z,100180.47
2023-02-02T00:54:46.125Z,100171.38
2023-02-02T00:57:48.825Z,100175.06
2023-02-02T01:00:52.355Z,100183.88
2023-02-02T01:03:55.113Z,100177.31
2023-02-02T01:06:57.714Z,100185.06
2023-02-02T01:10:00.358Z,100173.84
2023-02-02T01:13:03.245Z,100183.19
2023-02-02T01:16:07.778Z,100173.84
2023-02-02T01:19:12.655Z,100177.91
2023-02-02T01:22:15.244Z,100180.94
2023-02-02T01:25:17.934Z,100182.22
2023-02-02T01:28:20.514Z,100169.44
2023-02-02T01:31:23.210Z,100181.06
2023-02-02T01:34:25.782Z,100185.16
2023-02-02T01:37:28.333Z,100179.63
2023-02-02T01:40:31.039Z,100178.69
2023-02-02T01:43:45.652Z,100188.78
2023-02-02T01:46:48.291Z,100189.69
2023-02-02T01:49:51.433Z,100201.63
2023-02-02T01:52:56.044Z,100192.34
2023-02-02T01:55:59.202Z,100186.22
2023-02-02T01:59:02.613Z,100180.94
2023-02-02T02:02:05.248Z,100180.91
2023-02-02T02:05:09.425Z,100187.84
2023-02-02T02:08:35.312Z,100199.75
2023-02-02T02:11:38.221Z,100202.13
2023-02-02T02:15:00.234Z,100212.69
2023-02-02T02:18:21.452Z,100226.06
2023-02-02T02:21:59.225Z,100251.78
2023-02-02T02:25:52.263Z,100263.09
2023-02-02T02:29:22.784Z,100274.09
2023-02-02T02:32:35.194Z,100269.38
2023-02-02T02:36:01.036Z,100274.97
2023-02-02T02:39:17.966Z,100295.78
2023-02-02T02:42:23.303Z,100308.09
2023-02-02T02:45:28.062Z,100310.38
2023-02-02T02:48:31.835Z,100318.50
2023-02-02T02:51:49.561Z,100321.78
2023-02-02T02:54:58.513Z,100300.88
2023-02-02T02:58:10.599Z,100302.22
2023-02-02T03:01:32.289Z,100315.84
2023-02-02T03:04:43.253Z,100320.34
2023-02-02T03:07:50.706Z,100326.63
2023-02-02T03:10:54.132Z,100320.72
2023-02-02T03:13:57.033Z,100309.03
2023-02-02T03:16:59.508Z,100323.75
2023-02-02T03:20:02.053Z,100325.44
2023-02-02T03:23:04.613Z,100329.72
2023-02-02T03:26:07.497Z,100325.97
2023-02-02T03:29:10.302Z,100318.47
2023-02-02T03:32:12.900Z,100303.69
2023-02-02T03:35:15.474Z,100309.16
2023-02-02T03:38:18.178Z,100311.31
2023-02-02T03:41:20.792Z,100311.84
2023-02-02T03:44:23.427Z,100302.19
2023-02-02T03:47:29.010Z,100298.28
2023-02-02T03:50:31.726Z,100292.59
2023-02-02T03:53:34.346Z,100289.63
2023-02-02T03:56:36.991Z,100291.44
2023-02-02T03:59:39.613Z,100282.75
2023-02-02T04:02:42.309Z,100284.25
2023-02-02T04:05:44.966Z,100298.34
2023-02-02T04:08:47.563Z,100284.91
2023-02-02T04:11:50.198Z,100279.81
2023-02-02T04:14:52.785Z,100284.91
2023-02-02T04:17:56.690Z,100279.66
2023-02-02T04:21:00.376Z,100266.44
2023-02-02T04:24:02.965Z,100282.78
2023-02-02T04:27:05.616Z,100275.91
2023-02-02T04:30:09.160Z,100280.00
2023-02-02T04:33:11.706Z,100268.72
2023-02-02T04:36:14.602Z,100249.41
2023-02-02T04:39:17.158Z,100255.63
2023-02-02T04:42:19.731Z,100266.44
2023-02-02T04:45:23.225Z,100253.66
2023-02-02T04:48:26.005Z,100251.22
2023-02-02T04:51:28.589Z,100256.28
2023-02-02T04:54:31.181Z,100258.91
2023-02-02T04:57:33.730Z,100233.41
2023-02-02T05:00:36.342Z,100251.41
2023-02-02T05:03:38.983Z,100273.19
2023-02-02T05:06:41.579Z,100279.25
2023-02-02T05:09:44.139Z,100289.06
2023-02-02T05:12:46.756Z,100293.50
2023-02-02T05:15:49.446Z,100284.00
2023-02-02T05:18:54.220Z,100297.91
2023-02-02T05:21:56.772Z,100282.06
2023-02-02T05:24:59.367Z,100285.47
2023-02-02T05:28:02.188Z,100298.09
2023-02-02T05:31:07.927Z,100304.66
2023-02-02T05:34:11.639Z,100317.94
2023-02-02T05:37:14.295Z,100313.00
2023-02-02T05:40:17.115Z,100317.75
2023-02-02T05:43:21.591Z,100234.88
2023-02-02T05:46:24.236Z,100306.44
2023-02-02T05:49:26.886Z,100321.53
2023-02-02T05:52:32.003Z,100307.94
2023-02-02T05:55:34.519Z,100310.06
2023-02-02T05:58:37.131Z,100315.81
2023-02-02T06:01:39.827Z,100297.28
2023-02-02T06:04:42.535Z,100309.56
2023-02-02T06:07:45.208Z,100318.59
2023-02-02T06:10:47.927Z,100319.56
2023-02-02T06:13:50.811Z,100303.34
2023-02-02T06:16:53.461Z,100327.91
2023-02-02T06:20:15.020Z,100309.38
2023-02-02T06:23:17.670Z,100302.00
2023-02-02T06:26:20.297Z,100311.84
2023-02-02T06:29:23.147Z,100304.59
2023-02-02T06:32:25.826Z,100306.72
2023-02-02T06:35:28.557Z,100299.16
2023-02-02T06:38:31.547Z,100296.22
2023-02-02T06:41:35.246Z,100300.44
2023-02-02T06:44:37.907Z,100291.44
2023-02-02T06:47:40.477Z,100299.31
2023-02-02T06:50:43.192Z,100308.13
2023-02-02T06:53:49.502Z,100305.34
2023-02-02T06:56:52.200Z,100323.22
2023-02-02T06:59:54.814Z,100326.81
2023-02-02T07:02:57.759Z,100321.25
2023-02-02T07:06:10.264Z,100315.13
2023-02-02T07:09:13.035Z,100319.88
2023-02-02T07:12:15.641Z,100312.63
2023-02-02T07:15:19.012Z,100334.22
2023-02-02T07:18:22.613Z,100318.69
2023-02-02T07:21:29.534Z,100329.50
2023-02-02T07:24:33.040Z,100329.03
2023-02-02T07:27:35.629Z,100326.09
2023-02-02T07:30:38.370Z,100323.13
2023-02-02T07:33:45.258Z,100318.66
2023-02-02T07:36:47.913Z,100328.97
2023-02-02T07:39:50.495Z,100353.53
2023-02-02T07:42:53.043Z,100338.00
2023-02-02T07:46:01.974Z,100358.00
2023-02-02T07:49:04.506Z,100361.00
2023-02-02T07:52:07.226Z,100357.22
2023-02-02T07:55:26.473Z,100373.38
2023-02-02T07:58:29.579Z,100343.13
2023-02-02T08:01:32.485Z,100377.75
2023-02-02T08:04:35.122Z,100375.84
2023-02-02T08:07:37.729Z,100364.78
2023-02-02T08:10:40.378Z,100368.50
2023-02-02T08:13:44.147Z,100369.00
2023-02-02T08:16:46.822Z,100358.34
2023-02-02T08:19:49.487Z,100362.81
2023-02-02T08:22:52.123Z,100367.53
2023-02-02T08:25:56.016Z,100377.06
2023-02-02T08:29:01.596Z,100360.00
2023-02-02T08:32:04.959Z,100373.34
2023-02-02T08:35:07.925Z,100378.72
2023-02-02T08:38:10.756Z,100371.50
2023-02-02T08:41:16.569Z,100360.66
2023-02-02T08:44:20.143Z,100373.88
2023-02-02T08:47:29.002Z,100378.88
2023-02-02T08:50:31.536Z,100379.13
2023-02-02T08:53:34.543Z,100356.25
2023-02-02T08:56:37.200Z,100384.97
2023-02-02T08:59:40.241Z,100388.84
2023-02-02T09:02:42.881Z,100377.44
2023-02-02T09:05:45.476Z,100400.50
2023-02-02T09:08:48.527Z,100403.22
2023-02-02T09:11:51.184Z,100397.28
2023-02-02T09:14:53.891Z,100412.31
2023-02-02T09:17:56.938Z,100407.03
2023-02-02T09:21:01.108Z,100418.34
2023-02-02T09:24:12.201Z,100418.78
2023-02-02T09:27:14.857Z,100421.75
2023-02-02T09:30:17.843Z,100433.94
2023-02-02T09:33:20.376Z,100433.94
2023-02-02T09:36:24.387Z,100438.25
2023-02-02T09:39:27.175Z,100431.53
2023-02-02T09:42:35.387Z,100433.50
2023-02-02T09:45:46.883Z,100459.28
2023-02-02T09:49:02.410Z,100449.66
2023-02-02T09:52:34.988Z,100455.06
2023-02-02T09:55:40.376Z,100467.53
2023-02-02T09:58:53.235Z,100452.22
2023-02-02T10:01:58.550Z,100450.50
2023-02-02T10:05:08.836Z,100453.75
2023-02-02T10:08:20.571Z,100447.13
2023-02-02T10:11:55.098Z,100450.56
2023-02-02T10:15:38.585Z,100457.44
2023-02-02T10:18:43.298Z,100452.78
2023-02-02T10:22:03.070Z,100455.81
2023-02-02T10:25:06.299Z,100465.94
2023-02-02T10:28:40.218Z,100464.13
2023-02-02T10:32:04.052Z,100464.22
2023-02-02T10:35:37.816Z,100456.13
2023-02-02T10:38:58.405Z,100440.28
2023-02-02T10:42:30.530Z,100430.75
2023-02-02T10:45:33.468Z,100444.94
2023-02-02T10:48:36.355Z,100423.25
2023-02-02T10:51:41.350Z,100426.72
2023-02-02T10:55:04.167Z,100442.84
2023-02-02T10:58:13.164Z,100445.16
2023-02-02T11:01:18.366Z,100440.38
2023-02-02T11:04:40.786Z,100445.00
2023-02-02T11:07:43.545Z,100448.88
2023-02-02T11:10:48.611Z,100433.47
2023-02-02T11:13:54.179Z,100440.09
2023-02-02T11:17:06.104Z,100445.25
2023-02-02T11:20:35.423Z,100454.38
2023-02-02T11:23:38.126Z,100447.38
2023-02-02T11:27:02.185Z,100465.59
2023-02-02T11:30:12.799Z,100444.19
2023-02-02T11:33:29.045Z,100450.06
2023-02-02T11:36:31.724Z,100449.72
2023-02-02T11:39:34.369Z,100448.69
2023-02-02T11:42:37.052Z,100453.63
2023-02-02T11:45:41.993Z,100453.22
2023-02-02T11:49:07.945Z,100438.59
2023-02-02T11:52:18.336Z,100451.28
2023-02-02T11:55:27.431Z,100455.06
2023-02-02T11:58:50.055Z,100440.03
2023-02-02T12:02:10.596Z,100444.00
2023-02-02T12:05:23.843Z,100444.81
2023-02-02T12:08:26.395Z,100427.44
2023-02-02T12:11:52.241Z,100418.34
2023-02-02T12:15:19.985Z,100423.22
2023-02-02T12:18:52.350Z,100448.06
2023-02-02T12:22:17.709Z,100436.13
2023-02-02T12:25:44.951Z,100450.38
2023-02-02T12:28:53.317Z,100451.09
2023-02-02T12:32:24.266Z,100432.13
2023-02-02T12:35:51.623Z,100442.69
2023-02-02T12:39:09.138Z,100443.69
2023-02-02T12:42:12.164Z,100434.53
2023-02-02T12:45:21.830Z,100445.09
2023-02-02T12:48:42.484Z,100450.59
2023-02-02T12:52:07.335Z,100441.63
2023-02-02T12:55:16.388Z,100437.00
2023-02-02T12:58:45.615Z,100439.78
2023-02-02T13:01:51.032Z,100447.75
2023-02-02T13:04:59.720Z,100447.16
2023-02-02T13:08:07.291Z,100439.81
2023-02-02T13:11:30.158Z,100434.59
2023-02-02T13:14:47.182Z,100442.47
2023-02-02T13:17:59.565Z,100428.00
2023-02-02T13:21:03.624Z,100434.75
2023-02-02T13:24:08.172Z,100403.94
2023-02-02T13:27:14.923Z,100424.94
2023-02-02T13:30:30.089Z,100433.22
2023-02-02T13:33:35.804Z,100432.63
2023-02-02T13:36:40.102Z,100432.69
2023-02-02T13:39:47.473Z,100431.63
2023-02-02T13:42:55.283Z,100412.88
2023-02-02T13:46:12.422Z,100434.19
2023-02-02T13:49:29.220Z,100441.59
2023-02-02T13:53:02.729Z,100410.66
2023-02-02T13:56:25.924Z,100439.78
2023-02-02T14:00:03.527Z,100432.91
2023-02-02T14:03:33.922Z,100444.31
2023-02-02T14:07:00.397Z,100435.50
2023-02-02T14:10:04.581Z,100443.63
2023-02-02T14:13:32.953Z,100445.63
2023-02-02T14:16:36.001Z,100452.56
2023-02-02T14:19:41.557Z,100448.91
2023-02-02T14:22:54.822Z,100457.81
2023-02-02T14:26:42.737Z,100449.53
2023-02-02T14:29:47.224Z,100455.91
2023-02-02T14:32:50.658Z,100450.00
2023-02-02T14:36:01.443Z,100449.75
2023-02-02T14:39:16.706Z,100440.19
2023-02-02T14:43:03.480Z,100440.75
2023-02-02T14:46:15.806Z,100452.00
2023-02-02T14:49:21.034Z,100462.63
2023-02-02T14:52:23.779Z,100476.38
2023-02-02T14:55:27.710Z,100466.38
2023-02-02T14:58:30.323Z,100472.19
2023-02-02T15:01:34.659Z,100466.63
2023-02-02T15:04:37.529Z,100474.88
2023-02-02T15:07:53.004Z,100470.16
2023-02-02T15:10:56.787Z,100477.38
2023-02-02T15:14:07.232Z,100472.88
2023-02-02T15:17:25.137Z,100480.66
2023-02-02T15:20:32.688Z,100478.97
2023-02-02T15:23:39.726Z,100475.91
2023-02-02T15:26:43.072Z,100474.81
2023-02-02T15:29:49.593Z,100485.16
2023-02-02T15:32:52.973Z,100482.16
2023-02-02T15:35:57.423Z,100481.63
2023-02-02T15:39:04.056Z,100478.84
2023-02-02T15:42:33.402Z,100482.88
2023-02-02T15:45:48.932Z,100480.28
2023-02-02T15:49:35.759Z,100482.28
2023-02-02T15:52:46.886Z,100495.31
2023-02-02T15:55:50.045Z,100487.03
2023-02-02T15:58:55.747Z,100500.94
2023-02-02T16:02:07.084Z,100497.19
2023-02-02T16:05:38.521Z,100491.63
2023-02-02T16:08:42.051Z,100496.97
2023-02-02T16:11:47.072Z,100509.84
2023-02-02T16:14:51.942Z,100511.47
2023-02-02T16:18:02.961Z,100505.50
2023-02-02T16:21:14.929Z,100503.22
2023-02-02T16:24:24.192Z,100499.19
2023-02-02T16:27:29.194Z,100513.81
2023-02-02T16:30:37.998Z,100513.63
2023-02-02T16:33:45.598Z,100516.19
2023-02-02T16:37:32.347Z,100525.56
2023-02-02T16:40:35.179Z,100521.88
2023-02-02T16:43:42.320Z,100529.16
2023-02-02T16:46:47.916Z,100540.84
2023-02-02T16:49:50.623Z,100545.78
2023-02-02T16:53:05.149Z,100547.63
2023-02-02T16:56:07.917Z,100558.56
2023-02-02T16:59:37.807Z,100564.84
2023-02-02T17:02:42.343Z,100571.06
2023-02-02T17:05:54.232Z,100567.28
2023-02-02T17:08:56.926Z,100568.44
2023-02-02T17:12:12.202Z,100571.56
2023-02-02T17:15:17.025Z,100586.84
2023-02-02T17:18:19.591Z,100587.97
2023-02-02T17:21:24.561Z,100591.72
2023-02-02T17:24:27.844Z,100590.41
2023-02-02T17:27:34.118Z,100606.47
2023-02-02T17:30:37.364Z,100613.22
2023-02-02T17:33:40.403Z,100621.28
2023-02-02T17:36:45.892Z,100603.25
2023-02-02T17:39:50.532Z,100628.03
2023-02-02T17:42:53.555Z,100629.81
2023-02-02T17:45:56.289Z,100626.88
2023-02-02T17:48:58.892Z,100632.91
2023-02-02T17:52:01.432Z,100633.59
2023-02-02T17:55:18.113Z,100637.69
2023-02-02T17:58:20.835Z,100651.50
2023-02-02T18:01:23.611Z,100643.91
2023-02-02T18:04:27.033Z,100663.44
2023-02-02T18:07:29.693Z,100654.56
2023-02-02T18:10:32.640Z,100657.53
2023-02-02T18:13:35.321Z,100652.59
2023-02-02T18:16:37.883Z,100661.13
2023-02-02T18:19:44.906Z,100672.41
2023-02-02T18:22:48.757Z,100671.09
2023-02-02T18:25:52.963Z,100669.50
2023-02-02T18:28:55.633Z,100662.63
2023-02-02T18:31:59.378Z,100672.81
2023-02-02T18:35:02.429Z,100669.88
2023-02-02T18:38:05.009Z,100673.97
2023-02-02T18:41:08.113Z,100660.38
2023-02-02T18:44:10.827Z,100688.44
2023-02-02T18:47:13.484Z,100681.69
2023-02-02T18:50:16.519Z,100672.69
2023-02-02T18:53:19.550Z,100684.00
2023-02-02T18:56:22.125Z,100697.81
2023-02-02T18:59:24.942Z,100711.59
2023-02-02T19:02:27.695Z,100702.22
2023-02-02T19:05:49.018Z,100695.84
2023-02-02T19:08:51.962Z,100695.31
2023-02-02T19:11:55.036Z,100696.16
2023-02-02T19:14:57.777Z,100705.53
2023-02-02T19:18:00.883Z,100701.41
2023-02-02T19:21:04.937Z,100687.63
2023-02-02T19:24:12.756Z,100699.63
2023-02-02T19:27:18.086Z,100724.44
2023-02-02T19:30:23.154Z,100701.72
2023-02-02T19:33:39.654Z,100708.66
2023-02-02T19:36:46.830Z,100705.84
2023-02-02T19:39:49.768Z,100722.44
2023-02-02T19:43:14.942Z,100719.31
2023-02-02T19:46:23.184Z,100745.13
2023-02-02T19:49:34.432Z,100735.91
2023-02-02T19:52:37.183Z,100745.28
2023-02-02T19:55:40.776Z,100746.25
2023-02-02T19:58:49.281Z,100753.66
2023-02-02T20:01:51.953Z,100758.91
2023-02-02T20:05:22.202Z,100752.00
2023-02-02T20:08:41.513Z,100763.50
2023-02-02T20:11:45.747Z,100787.66
2023-02-02T20:14:48.918Z,100755.13
2023-02-02T20:17:54.341Z,100755.47
2023-02-02T20:20:57.232Z,100744.78
2023-02-02T20:24:00.206Z,100742.97
2023-02-02T20:27:23.528Z,100764.50
2023-02-02T20:30:30.960Z,100761.88
2023-02-02T20:33:33.795Z,100766.16
2023-02-02T20:36:40.958Z,100741.84
2023-02-02T20:39:48.003Z,100763.53
2023-02-02T20:42:51.396Z,100750.19
2023-02-02T20:45:54.277Z,100752.34
2023-02-02T20:48:57.066Z,100766.31
2023-02-02T20:52:02.260Z,100775.66
2023-02-02T20:55:05.323Z,100768.44
2023-02-02T20:58:09.912Z,100775.50
2023-02-02T21:01:12.905Z,100772.06
2023-02-02T21:04:15.886Z,100775.66
2023-02-02T21:07:21.436Z,100797.50
2023-02-02T21:10:25.922Z,100800.59
2023-02-02T21:13:29.001Z,100807.50
2023-02-02T21:16:31.764Z,100802.44
2023-02-02T21:19:34.448Z,100806.19
2023-02-02T21:22:37.188Z,100821.81
2023-02-02T21:25:39.766Z,100819.00
2023-02-02T21:28:42.381Z,100834.75
2023-02-02T21:31:45.302Z,100843.31
2023-02-02T21:34:49.377Z,100844.44
2023-02-02T21:37:55.268Z,100839.16
2023-02-02T21:40:59.654Z,100847.53
2023-02-02T21:44:02.548Z,100846.84
2023-02-02T21:47:27.239Z,100859.34
2023-02-02T21:50:35.946Z,100851.94
2023-02-02T21:53:38.494Z,100880.31
2023-02-02T21:56:42.151Z,100859.31
2023-02-02T21:59:46.846Z,100887.22
2023-02-02T22:02:51.218Z,100876.84
2023-02-02T22:06:16.913Z,100896.50
2023-02-02T22:09:24.767Z,100887.19
2023-02-02T22:12:28.690Z,100895.84
2023-02-02T22:15:34.519Z,100919.25
2023-02-02T22:18:37.159Z,100920.03
2023-02-02T22:21:39.723Z,100934.44
2023-02-02T22:24:44.309Z,100949.66
2023-02-02T22:28:01.564Z,100955.13
2023-02-02T22:31:05.237Z,100954.91
2023-02-02T22:34:07.975Z,100962.84
2023-02-02T22:37:10.571Z,100953.78
2023-02-02T22:40:13.802Z,100962.63
2023-02-02T22:43:17.635Z,100956.06
2023-02-02T22:46:20.167Z,100948.19
2023-02-02T22:49:22.770Z,100960.19
2023-02-02T22:52:25.406Z,100968.41
2023-02-02T22:55:28.137Z,100967.88
2023-02-02T22:58:30.728Z,100977.69
2023-02-02T23:01:33.281Z,100982.22
2023-02-02T23:04:35.810Z,100978.44
2023-02-02T23:07:39.670Z,100986.84
2023-02-02T23:10:42.263Z,100993.34
2023-02-02T23:13:44.792Z,100990.50
2023-02-02T23:16:47.395Z,100987.47
2023-02-02T23:19:49.964Z,101005.31
2023-02-02T23:22:52.498Z,101010.81
2023-02-02T23:25:55.158Z,101020.47
2023-02-02T23:28:57.702Z,101027.84
2023-02-02T23:32:00.315Z,101003.69
2023-02-02T23:35:03.891Z,101030.53
2023-02-02T23:38:06.424Z,101036.63
2023-02-02T23:41:08.972Z,101042.00
2023-02-02T23:44:11.725Z,101027.81
2023-02-02T23:47:14.414Z,101026.72
2023-02-02T23:50:16.995Z,101033.03
2023-02-02T23:53:19.895Z,101022.66
2023-02-02T23:56:22.622Z,101030.19
2023-02-02T23:59:25.245Z,101051.75
